sensor_id;sensor_type;location;lat;lon;timestamp;pressure;altitude;pressure_sealevel;temperature;humidity
50430;BME280;36359;41.556;-8.418;2023-05-01T00:00:14;100366.13;;;18.94;72.21
50430;BME280;36359;41.556;-8.418;2023-05-01T00:02:44;100367.19;;;18.93;72.09
50430;BME280;36359;41.556;-8.418;2023-05-01T00:05:10;100369.81;;;18.73;73.00
50430;BME280;36359;41.556;-8.418;2023-05-01T00:07:36;100365.44;;;18.78;73.72
50430;BME280;36359;41.556;-8.418;2023-05-01T00:10:02;100358.97;;;18.65;74.25
50430;BME280;36359;41.556;-8.418;2023-05-01T00:12:27;100362.72;;;18.50;74.48
50430;BME280;36359;41.556;-8.418;2023-05-01T00:14:53;100365.38;;;18.44;75.46
50430;BME280;36359;41.556;-8.418;2023-05-01T00:17:19;100363.41;;;18.31;75.92
50430;BME280;36359;41.556;-8.418;2023-05-01T00:19:51;100355.06;;;18.46;77.45
50430;BME280;36359;41.556;-8.418;2023-05-01T00:22:17;100360.09;;;18.42;77.34
50430;BME280;36359;41.556;-8.418;2023-05-01T00:24:43;100345.56;;;18.20;77.07
50430;BME280;36359;41.556;-8.418;2023-05-01T00:27:08;100355.34;;;18.29;78.72
50430;BME280;36359;41.556;-8.418;2023-05-01T00:29:35;100352.41;;;18.31;76.64
50430;BME280;36359;41.556;-8.418;2023-05-01T00:32:00;100353.28;;;18.38;81.19
50430;BME280;36359;41.556;-8.418;2023-05-01T00:34:26;100351.03;;;18.42;76.89
50430;BME280;36359;41.556;-8.418;2023-05-01T00:36:52;100350.75;;;18.36;76.59
50430;BME280;36359;41.556;-8.418;2023-05-01T00:39:18;100350.72;;;18.30;77.79
50430;BME280;36359;41.556;-8.418;2023-05-01T00:44:15;100338.78;;;18.16;78.25
50430;BME280;36359;41.556;-8.418;2023-05-01T00:46:41;100339.22;;;18.20;78.18
50430;BME280;36359;41.556;-8.418;2023-05-01T00:49:08;100336.78;;;18.31;79.73
50430;BME280;36359;41.556;-8.418;2023-05-01T00:51:34;100331.91;;;18.27;78.65
50430;BME280;36359;41.556;-8.418;2023-05-01T00:54:00;100329.88;;;18.14;78.30
50430;BME280;36359;41.556;-8.418;2023-05-01T00:56:27;100324.00;;;18.17;78.44
50430;BME280;36359;41.556;-8.418;2023-05-01T00:58:54;100321.50;;;18.22;78.98
50430;BME280;36359;41.556;-8.418;2023-05-01T01:01:20;100316.09;;;18.07;78.19
50430;BME280;36359;41.556;-8.418;2023-05-01T01:03:46;100313.81;;;18.11;82.27
50430;BME280;36359;41.556;-8.418;2023-05-01T01:09:12;100307.56;;;17.96;81.47
50430;BME280;36359;41.556;-8.418;2023-05-01T01:14:32;100303.06;;;17.88;79.87
50430;BME280;36359;41.556;-8.418;2023-05-01T01:17:20;100298.19;;;17.83;79.89
50430;BME280;36359;41.556;-8.418;2023-05-01T01:22:43;100297.91;;;17.78;80.67
50430;BME280;36359;41.556;-8.418;2023-05-01T01:25:18;100291.50;;;17.71;80.62
50430;BME280;36359;41.556;-8.418;2023-05-01T01:36:22;100291.09;;;17.74;79.93
50430;BME280;36359;41.556;-8.418;2023-05-01T01:39:29;100282.66;;;17.76;79.97
50430;BME280;36359;41.556;-8.418;2023-05-01T01:46:58;100287.63;;;17.44;82.25
50430;BME280;36359;41.556;-8.418;2023-05-01T01:49:26;100284.25;;;17.42;82.61
50430;BME280;36359;41.556;-8.418;2023-05-01T01:51:54;100270.56;;;17.06;84.69
50430;BME280;36359;41.556;-8.418;2023-05-01T01:54:26;100266.53;;;17.23;85.35
50430;BME280;36359;41.556;-8.418;2023-05-01T01:56:55;100266.53;;;17.23;85.76
50430;BME280;36359;41.556;-8.418;2023-05-01T01:59:24;100271.84;;;17.46;88.53
50430;BME280;36359;41.556;-8.418;2023-05-01T02:01:52;100274.50;;;17.61;84.12
50430;BME280;36359;41.556;-8.418;2023-05-01T02:04:21;100256.28;;;17.75;84.81
50430;BME280;36359;41.556;-8.418;2023-05-01T02:06:48;100260.41;;;17.64;82.80
50430;BME280;36359;41.556;-8.418;2023-05-01T02:09:15;100256.81;;;17.42;83.00
50430;BME280;36359;41.556;-8.418;2023-05-01T02:11:43;100252.06;;;17.51;82.68
50430;BME280;36359;41.556;-8.418;2023-05-01T02:14:13;100255.28;;;17.33;82.21
50430;BME280;36359;41.556;-8.418;2023-05-01T02:16:40;100260.16;;;17.37;83.30
50430;BME280;36359;41.556;-8.418;2023-05-01T02:19:07;100261.16;;;17.30;83.10
50430;BME280;36359;41.556;-8.418;2023-05-01T02:21:34;100259.94;;;17.17;84.72
50430;BME280;36359;41.556;-8.418;2023-05-01T02:24:02;100264.84;;;17.22;84.25
50430;BME280;36359;41.556;-8.418;2023-05-01T02:26:30;100260.81;;;17.39;83.91
50430;BME280;36359;41.556;-8.418;2023-05-01T02:29:00;100255.28;;;17.33;83.65
50430;BME280;36359;41.556;-8.418;2023-05-01T02:31:26;100266.03;;;17.13;89.51
50430;BME280;36359;41.556;-8.418;2023-05-01T02:33:52;100261.13;;;17.51;84.97
50430;BME280;36359;41.556;-8.418;2023-05-01T02:36:18;100260.66;;;17.26;83.31
50430;BME280;36359;41.556;-8.418;2023-05-01T02:38:43;100260.97;;;16.95;84.71
50430;BME280;36359;41.556;-8.418;2023-05-01T02:41:13;100259.97;;;17.39;85.29
50430;BME280;36359;41.556;-8.418;2023-05-01T02:43:40;100261.19;;;17.36;83.26
50430;BME280;36359;41.556;-8.418;2023-05-01T02:46:09;100255.97;;;17.20;84.12
50430;BME280;36359;41.556;-8.418;2023-05-01T02:48:35;100263.00;;;17.08;84.14
50430;BME280;36359;41.556;-8.418;2023-05-01T02:51:03;100272.06;;;17.08;84.56
50430;BME280;36359;41.556;-8.418;2023-05-01T02:53:29;100266.88;;;17.13;84.69
50430;BME280;36359;41.556;-8.418;2023-05-01T02:56:04;100277.00;;;17.13;84.40
50430;BME280;36359;41.556;-8.418;2023-05-01T02:58:30;100277.13;;;17.26;85.73
50430;BME280;36359;41.556;-8.418;2023-05-01T03:00:59;100295.34;;;17.34;84.00
50430;BME280;36359;41.556;-8.418;2023-05-01T03:03:24;100286.28;;;17.33;83.62
50430;BME280;36359;41.556;-8.418;2023-05-01T03:05:52;100286.00;;;17.28;83.47
50430;BME280;36359;41.556;-8.418;2023-05-01T03:08:18;100283.84;;;17.23;84.03
50430;BME280;36359;41.556;-8.418;2023-05-01T03:10:44;100283.03;;;17.08;83.60
50430;BME280;36359;41.556;-8.418;2023-05-01T03:13:10;100288.28;;;17.03;83.91
50430;BME280;36359;41.556;-8.418;2023-05-01T03:15:36;100286.47;;;16.95;85.35
50430;BME280;36359;41.556;-8.418;2023-05-01T03:18:03;100299.34;;;16.95;85.61
50430;BME280;36359;41.556;-8.418;2023-05-01T03:20:29;100294.66;;;17.10;88.08
50430;BME280;36359;41.556;-8.418;2023-05-01T03:22:56;100295.78;;;17.16;89.43
50430;BME280;36359;41.556;-8.418;2023-05-01T03:25:21;100302.72;;;17.33;88.81
50430;BME280;36359;41.556;-8.418;2023-05-01T03:27:47;100307.22;;;17.41;84.38
50430;BME280;36359;41.556;-8.418;2023-05-01T03:30:15;100312.41;;;17.51;85.30
50430;BME280;36359;41.556;-8.418;2023-05-01T03:32:41;100307.75;;;17.30;88.06
50430;BME280;36359;41.556;-8.418;2023-05-01T03:35:14;100312.59;;;17.28;84.92
50430;BME280;36359;41.556;-8.418;2023-05-01T03:37:39;100306.72;;;17.31;86.54
50430;BME280;36359;41.556;-8.418;2023-05-01T03:40:06;100307.72;;;17.44;85.70
50430;BME280;36359;41.556;-8.418;2023-05-01T03:45:22;100309.78;;;17.21;85.97
50430;BME280;36359;41.556;-8.418;2023-05-01T03:47:49;100316.22;;;17.13;85.71
50430;BME280;36359;41.556;-8.418;2023-05-01T03:50:15;100314.09;;;16.79;86.73
50430;BME280;36359;41.556;-8.418;2023-05-01T03:52:43;100317.31;;;16.68;87.52
50430;BME280;36359;41.556;-8.418;2023-05-01T03:55:08;100317.66;;;16.65;87.83
50430;BME280;36359;41.556;-8.418;2023-05-01T03:57:39;100318.94;;;16.77;88.44
50430;BME280;36359;41.556;-8.418;2023-05-01T04:00:06;100313.44;;;16.77;86.79
50430;BME280;36359;41.556;-8.418;2023-05-01T04:02:40;100315.19;;;16.70;86.36
50430;BME280;36359;41.556;-8.418;2023-05-01T04:05:07;100315.78;;;16.65;86.61
50430;BME280;36359;41.556;-8.418;2023-05-01T04:07:34;100314.47;;;16.76;87.22
50430;BME280;36359;41.556;-8.418;2023-05-01T04:09:59;100309.34;;;16.73;86.44
50430;BME280;36359;41.556;-8.418;2023-05-01T04:12:25;100311.16;;;16.66;92.56
50430;BME280;36359;41.556;-8.418;2023-05-01T04:14:51;100310.41;;;16.87;87.55
50430;BME280;36359;41.556;-8.418;2023-05-01T04:17:16;100322.13;;;16.80;86.35
50430;BME280;36359;41.556;-8.418;2023-05-01T04:19:42;100325.03;;;16.79;86.44
50430;BME280;36359;41.556;-8.418;2023-05-01T04:22:08;100317.38;;;16.74;85.69
50430;BME280;36359;41.556;-8.418;2023-05-01T04:24:35;100331.47;;;16.56;87.30
50430;BME280;36359;41.556;-8.418;2023-05-01T04:27:01;100328.16;;;16.61;86.61
50430;BME280;36359;41.556;-8.418;2023-05-01T04:29:27;100322.69;;;16.76;86.44
50430;BME280;36359;41.556;-8.418;2023-05-01T04:31:54;100319.84;;;16.69;86.33
50430;BME280;36359;41.556;-8.418;2023-05-01T04:34:19;100328.59;;;16.65;86.39
50430;BME280;36359;41.556;-8.418;2023-05-01T04:36:45;100321.72;;;16.39;87.33
50430;BME280;36359;41.556;-8.418;2023-05-01T04:39:11;100327.94;;;16.18;90.10
50430;BME280;36359;41.556;-8.418;2023-05-01T04:41:37;100331.97;;;16.07;89.85
50430;BME280;36359;41.556;-8.418;2023-05-01T04:44:04;100335.47;;;16.01;90.56
50430;BME280;36359;41.556;-8.418;2023-05-01T04:46:31;100336.25;;;15.87;91.42
50430;BME280;36359;41.556;-8.418;2023-05-01T04:48:58;100322.88;;;15.92;92.27
50430;BME280;36359;41.556;-8.418;2023-05-01T04:51:23;100327.00;;;15.88;91.61
50430;BME280;36359;41.556;-8.418;2023-05-01T04:53:50;100326.91;;;15.81;93.14
50430;BME280;36359;41.556;-8.418;2023-05-01T04:56:20;100335.38;;;15.72;91.97
50430;BME280;36359;41.556;-8.418;2023-05-01T04:58:48;100329.28;;;15.84;90.81
50430;BME280;36359;41.556;-8.418;2023-05-01T05:01:18;100324.94;;;15.90;89.93
50430;BME280;36359;41.556;-8.418;2023-05-01T05:03:44;100329.84;;;15.80;90.53
50430;BME280;36359;41.556;-8.418;2023-05-01T05:06:13;100336.78;;;16.05;91.26
50430;BME280;36359;41.556;-8.418;2023-05-01T05:08:39;100332.09;;;15.91;91.14
50430;BME280;36359;41.556;-8.418;2023-05-01T05:11:07;100328.72;;;15.89;91.02
50430;BME280;36359;41.556;-8.418;2023-05-01T05:13:59;100328.91;;;15.87;93.80
50430;BME280;36359;41.556;-8.418;2023-05-01T05:16:25;100334.72;;;16.07;90.12
50430;BME280;36359;41.556;-8.418;2023-05-01T05:19:10;100339.03;;;16.02;88.73
50430;BME280;36359;41.556;-8.418;2023-05-01T05:21:39;100337.53;;;15.76;90.00
50430;BME280;36359;41.556;-8.418;2023-05-01T05:24:05;100340.50;;;15.66;90.45
50430;BME280;36359;41.556;-8.418;2023-05-01T05:26:31;100339.53;;;15.59;91.58
50430;BME280;36359;41.556;-8.418;2023-05-01T05:29:00;100337.63;;;15.68;92.33
50430;BME280;36359;41.556;-8.418;2023-05-01T05:31:26;100339.06;;;15.79;91.42
50430;BME280;36359;41.556;-8.418;2023-05-01T05:33:52;100346.34;;;15.63;90.89
50430;BME280;36359;41.556;-8.418;2023-05-01T05:36:17;100340.81;;;15.49;91.08
50430;BME280;36359;41.556;-8.418;2023-05-01T05:38:43;100348.31;;;15.47;91.01
50430;BME280;36359;41.556;-8.418;2023-05-01T05:41:13;100337.88;;;15.27;92.03
50430;BME280;36359;41.556;-8.418;2023-05-01T05:46:06;100348.25;;;15.32;93.68
50430;BME280;36359;41.556;-8.418;2023-05-01T05:48:34;100353.97;;;14.83;96.03
50430;BME280;36359;41.556;-8.418;2023-05-01T05:51:00;100350.69;;;15.27;95.38
50430;BME280;36359;41.556;-8.418;2023-05-01T05:53:26;100362.72;;;15.72;93.63
50430;BME280;36359;41.556;-8.418;2023-05-01T05:55:53;100358.31;;;15.71;91.46
50430;BME280;36359;41.556;-8.418;2023-05-01T05:58:18;100360.47;;;15.75;91.19
50430;BME280;36359;41.556;-8.418;2023-05-01T06:00:47;100363.47;;;15.57;91.13
50430;BME280;36359;41.556;-8.418;2023-05-01T06:03:13;100364.31;;;15.58;90.80
50430;BME280;36359;41.556;-8.418;2023-05-01T06:05:41;100372.03;;;15.54;90.03
50430;BME280;36359;41.556;-8.418;2023-05-01T06:08:07;100370.03;;;15.48;90.91
50430;BME280;36359;41.556;-8.418;2023-05-01T06:10:35;100362.19;;;15.45;91.72
50430;BME280;36359;41.556;-8.418;2023-05-01T06:13:02;100367.31;;;15.48;91.67
50430;BME280;36359;41.556;-8.418;2023-05-01T06:15:27;100359.84;;;15.65;91.42
50430;BME280;36359;41.556;-8.418;2023-05-01T06:17:55;100366.53;;;15.62;91.20
50430;BME280;36359;41.556;-8.418;2023-05-01T06:20:22;100368.56;;;15.60;90.98
50430;BME280;36359;41.556;-8.418;2023-05-01T06:22:49;100364.81;;;15.61;92.29
50430;BME280;36359;41.556;-8.418;2023-05-01T06:25:20;100377.47;;;15.62;92.09
50430;BME280;36359;41.556;-8.418;2023-05-01T06:27:45;100376.50;;;15.78;93.88
50430;BME280;36359;41.556;-8.418;2023-05-01T06:30:11;100369.19;;;15.94;90.54
50430;BME280;36359;41.556;-8.418;2023-05-01T06:32:42;100374.44;;;16.03;90.63
50430;BME280;36359;41.556;-8.418;2023-05-01T06:35:09;100372.06;;;16.00;91.06
50430;BME280;36359;41.556;-8.418;2023-05-01T06:37:35;100366.28;;;15.95;90.89
50430;BME280;36359;41.556;-8.418;2023-05-01T06:40:06;100361.19;;;15.92;91.41
50430;BME280;36359;41.556;-8.418;2023-05-01T06:42:32;100366.28;;;15.95;91.95
50430;BME280;36359;41.556;-8.418;2023-05-01T06:45:00;100368.97;;;16.03;90.76
50430;BME280;36359;41.556;-8.418;2023-05-01T06:47:26;100369.81;;;16.04;90.51
50430;BME280;36359;41.556;-8.418;2023-05-01T06:49:52;100374.72;;;16.08;90.16
50430;BME280;36359;41.556;-8.418;2023-05-01T06:52:18;100377.59;;;15.92;92.21
50430;BME280;36359;41.556;-8.418;2023-05-01T06:54:43;100380.09;;;15.79;93.72
50430;BME280;36359;41.556;-8.418;2023-05-01T06:57:09;100390.13;;;16.09;92.29
50430;BME280;36359;41.556;-8.418;2023-05-01T06:59:35;100388.78;;;16.05;90.89
50430;BME280;36359;41.556;-8.418;2023-05-01T07:02:00;100388.84;;;16.35;89.82
50430;BME280;36359;41.556;-8.418;2023-05-01T07:04:26;100389.81;;;16.42;86.43
50430;BME280;36359;41.556;-8.418;2023-05-01T07:06:52;100381.78;;;16.55;87.86
50430;BME280;36359;41.556;-8.418;2023-05-01T07:09:17;100379.63;;;16.51;86.66
50430;BME280;36359;41.556;-8.418;2023-05-01T07:14:46;100381.63;;;16.72;82.06
50430;BME280;36359;41.556;-8.418;2023-05-01T07:17:12;100381.94;;;16.92;85.39
50430;BME280;36359;41.556;-8.418;2023-05-01T07:19:37;100382.03;;;16.84;81.73
50430;BME280;36359;41.556;-8.418;2023-05-01T07:22:03;100387.13;;;16.87;82.20
50430;BME280;36359;41.556;-8.418;2023-05-01T07:24:29;100392.66;;;17.23;82.57
50430;BME280;36359;41.556;-8.418;2023-05-01T07:26:55;100397.16;;;17.45;82.34
50430;BME280;36359;41.556;-8.418;2023-05-01T07:29:20;100397.69;;;17.56;81.73
50430;BME280;36359;41.556;-8.418;2023-05-01T07:31:46;100400.03;;;17.59;80.83
50430;BME280;36359;41.556;-8.418;2023-05-01T07:34:12;100399.91;;;17.82;81.39
50430;BME280;36359;41.556;-8.418;2023-05-01T07:36:38;100401.41;;;17.84;81.24
50430;BME280;36359;41.556;-8.418;2023-05-01T07:39:04;100394.50;;;17.88;80.10
50430;BME280;36359;41.556;-8.418;2023-05-01T07:41:30;100395.75;;;17.86;80.25
50430;BME280;36359;41.556;-8.418;2023-05-01T07:43:59;100388.47;;;18.00;79.00
50430;BME280;36359;41.556;-8.418;2023-05-01T07:46:25;100391.88;;;18.02;79.33
50430;BME280;36359;41.556;-8.418;2023-05-01T07:48:51;100396.72;;;17.78;81.84
50430;BME280;36359;41.556;-8.418;2023-05-01T07:51:17;100399.06;;;18.03;81.31
50430;BME280;36359;41.556;-8.418;2023-05-01T07:53:43;100406.50;;;18.30;82.76
50430;BME280;36359;41.556;-8.418;2023-05-01T07:56:10;100398.31;;;18.37;79.70
50430;BME280;36359;41.556;-8.418;2023-05-01T07:58:37;100399.66;;;18.48;78.42
50430;BME280;36359;41.556;-8.418;2023-05-01T08:01:04;100396.66;;;18.71;79.27
50430;BME280;36359;41.556;-8.418;2023-05-01T08:03:30;100397.41;;;18.58;77.42
50430;BME280;36359;41.556;-8.418;2023-05-01T08:05:56;100397.75;;;18.48;77.27
50430;BME280;36359;41.556;-8.418;2023-05-01T08:08:22;100399.19;;;18.72;77.27
50430;BME280;36359;41.556;-8.418;2023-05-01T08:10:49;100401.19;;;18.85;76.61
50430;BME280;36359;41.556;-8.418;2023-05-01T08:13:15;100405.00;;;18.84;77.21
50430;BME280;36359;41.556;-8.418;2023-05-01T08:15:41;100405.38;;;19.09;75.66
50430;BME280;36359;41.556;-8.418;2023-05-01T08:18:10;100404.97;;;19.12;75.63
50430;BME280;36359;41.556;-8.418;2023-05-01T08:20:35;100407.75;;;19.25;76.07
50430;BME280;36359;41.556;-8.418;2023-05-01T08:23:01;100409.00;;;19.16;74.30
50430;BME280;36359;41.556;-8.418;2023-05-01T08:25:27;100407.53;;;19.20;74.40
50430;BME280;36359;41.556;-8.418;2023-05-01T08:27:52;100403.31;;;19.24;73.97
50430;BME280;36359;41.556;-8.418;2023-05-01T08:30:18;100407.00;;;19.45;73.41
50430;BME280;36359;41.556;-8.418;2023-05-01T08:32:44;100410.63;;;19.52;72.43
50430;BME280;36359;41.556;-8.418;2023-05-01T08:35:10;100414.03;;;19.54;73.30
50430;BME280;36359;41.556;-8.418;2023-05-01T08:37:36;100414.72;;;19.69;71.65
50430;BME280;36359;41.556;-8.418;2023-05-01T08:40:02;100408.38;;;19.69;72.54
50430;BME280;36359;41.556;-8.418;2023-05-01T08:42:35;100411.56;;;19.72;71.44
50430;BME280;36359;41.556;-8.418;2023-05-01T08:45:08;100410.72;;;19.79;72.48
50430;BME280;36359;41.556;-8.418;2023-05-01T08:47:36;100412.88;;;19.90;72.61
50430;BME280;36359;41.556;-8.418;2023-05-01T08:50:03;100410.56;;;20.07;71.41
50430;BME280;36359;41.556;-8.418;2023-05-01T08:52:31;100407.59;;;20.02;71.01
50430;BME280;36359;41.556;-8.418;2023-05-01T08:54:58;100396.78;;;19.93;70.78
50430;BME280;36359;41.556;-8.418;2023-05-01T08:57:26;100398.25;;;19.96;70.18
50430;BME280;36359;41.556;-8.418;2023-05-01T08:59:55;100395.09;;;19.86;70.29
50430;BME280;36359;41.556;-8.418;2023-05-01T09:02:23;100394.03;;;19.93;70.83
50430;BME280;36359;41.556;-8.418;2023-05-01T09:04:50;100400.41;;;20.14;70.18
50430;BME280;36359;41.556;-8.418;2023-05-01T09:07:16;100406.56;;;20.09;69.98
50430;BME280;36359;41.556;-8.418;2023-05-01T09:09:42;100396.81;;;20.13;69.29
50430;BME280;36359;41.556;-8.418;2023-05-01T09:12:22;100403.19;;;20.47;68.00
50430;BME280;36359;41.556;-8.418;2023-05-01T09:14:59;100402.75;;;20.50;68.78
50430;BME280;36359;41.556;-8.418;2023-05-01T09:17:24;100398.09;;;20.64;68.13
50430;BME280;36359;41.556;-8.418;2023-05-01T09:19:50;100405.06;;;20.73;68.69
50430;BME280;36359;41.556;-8.418;2023-05-01T09:22:17;100404.03;;;20.74;70.87
50430;BME280;36359;41.556;-8.418;2023-05-01T09:24:44;100400.16;;;20.82;71.09
50430;BME280;36359;41.556;-8.418;2023-05-01T09:27:13;100399.97;;;20.70;69.74
50430;BME280;36359;41.556;-8.418;2023-05-01T09:29:42;100406.97;;;20.73;69.54
50430;BME280;36359;41.556;-8.418;2023-05-01T09:34:45;100407.56;;;21.01;68.26
50430;BME280;36359;41.556;-8.418;2023-05-01T09:37:23;100392.22;;;21.19;67.93
50430;BME280;36359;41.556;-8.418;2023-05-01T09:40:25;100403.28;;;21.05;64.85
50430;BME280;36359;41.556;-8.418;2023-05-01T09:42:50;100397.91;;;21.37;64.98
50430;BME280;36359;41.556;-8.418;2023-05-01T09:45:17;100394.47;;;21.48;62.89
50430;BME280;36359;41.556;-8.418;2023-05-01T09:47:47;100403.38;;;21.50;63.47
50430;BME280;36359;41.556;-8.418;2023-05-01T09:50:32;100394.31;;;21.75;63.38
50430;BME280;36359;41.556;-8.418;2023-05-01T09:53:04;100391.91;;;21.85;63.94
50430;BME280;36359;41.556;-8.418;2023-05-01T09:55:31;100392.63;;;21.74;65.34
50430;BME280;36359;41.556;-8.418;2023-05-01T09:57:57;100398.50;;;21.84;66.11
50430;BME280;36359;41.556;-8.418;2023-05-01T10:00:23;100396.84;;;21.76;65.67
50430;BME280;36359;41.556;-8.418;2023-05-01T10:06:08;100403.13;;;21.90;64.55
50430;BME280;36359;41.556;-8.418;2023-05-01T10:08:44;100402.09;;;21.91;64.11
50430;BME280;36359;41.556;-8.418;2023-05-01T10:11:10;100390.16;;;21.91;61.83
50430;BME280;36359;41.556;-8.418;2023-05-01T10:13:36;100398.06;;;21.87;64.43
50430;BME280;36359;41.556;-8.418;2023-05-01T10:16:02;100400.91;;;21.74;63.30
50430;BME280;36359;41.556;-8.418;2023-05-01T10:18:35;100403.72;;;21.99;64.36
50430;BME280;36359;41.556;-8.418;2023-05-01T10:21:03;100400.44;;;22.09;63.14
50430;BME280;36359;41.556;-8.418;2023-05-01T10:23:29;100399.28;;;21.98;63.68
50430;BME280;36359;41.556;-8.418;2023-05-01T10:25:55;100413.97;;;22.23;62.79
50430;BME280;36359;41.556;-8.418;2023-05-01T10:28:23;100408.28;;;22.43;61.25
50430;BME280;36359;41.556;-8.418;2023-05-01T10:30:50;100403.78;;;22.24;60.34
50430;BME280;36359;41.556;-8.418;2023-05-01T10:33:16;100400.00;;;22.18;60.00
50430;BME280;36359;41.556;-8.418;2023-05-01T10:35:48;100409.47;;;22.29;59.70
50430;BME280;36359;41.556;-8.418;2023-05-01T10:38:22;100409.81;;;22.08;61.10
50430;BME280;36359;41.556;-8.418;2023-05-01T10:40:50;100406.03;;;22.34;59.76
50430;BME280;36359;41.556;-8.418;2023-05-01T10:45:48;100411.88;;;22.51;59.81
50430;BME280;36359;41.556;-8.418;2023-05-01T10:51:12;100415.88;;;22.73;57.47
50430;BME280;36359;41.556;-8.418;2023-05-01T10:53:45;100409.22;;;22.81;57.98
50430;BME280;36359;41.556;-8.418;2023-05-01T10:59:04;100410.72;;;23.02;55.50
50430;BME280;36359;41.556;-8.418;2023-05-01T11:01:50;100407.75;;;23.03;55.09
50430;BME280;36359;41.556;-8.418;2023-05-01T11:09:52;100409.19;;;23.43;55.61
50430;BME280;36359;41.556;-8.418;2023-05-01T11:17:51;100412.22;;;23.53;54.60
50430;BME280;36359;41.556;-8.418;2023-05-01T11:22:53;100400.47;;;23.57;53.37
50430;BME280;36359;41.556;-8.418;2023-05-01T11:25:26;100396.38;;;23.60;53.83
50430;BME280;36359;41.556;-8.418;2023-05-01T11:27:59;100400.63;;;23.93;53.93
50430;BME280;36359;41.556;-8.418;2023-05-01T11:30:37;100394.19;;;24.22;53.66
50430;BME280;36359;41.556;-8.418;2023-05-01T11:33:04;100389.72;;;24.10;53.49
50430;BME280;36359;41.556;-8.418;2023-05-01T11:35:31;100388.16;;;24.14;52.64
50430;BME280;36359;41.556;-8.418;2023-05-01T11:37:57;100396.88;;;24.41;51.97
50430;BME280;36359;41.556;-8.418;2023-05-01T11:40:27;100395.09;;;24.58;51.93
50430;BME280;36359;41.556;-8.418;2023-05-01T11:43:00;100392.28;;;24.35;52.95
50430;BME280;36359;41.556;-8.418;2023-05-01T11:45:26;100402.25;;;24.54;50.83
50430;BME280;36359;41.556;-8.418;2023-05-01T11:47:52;100391.38;;;24.64;51.90
50430;BME280;36359;41.556;-8.418;2023-05-01T11:50:18;100392.69;;;24.50;50.25
50430;BME280;36359;41.556;-8.418;2023-05-01T11:52:50;100376.06;;;24.50;49.47
50430;BME280;36359;41.556;-8.418;2023-05-01T11:55:20;100373.41;;;24.67;49.91
50430;BME280;36359;41.556;-8.418;2023-05-01T11:57:47;100378.22;;;24.83;48.36
50430;BME280;36359;41.556;-8.418;2023-05-01T12:00:15;100369.44;;;24.63;47.98
50430;BME280;36359;41.556;-8.418;2023-05-01T12:02:58;100365.06;;;24.79;49.15
50430;BME280;36359;41.556;-8.418;2023-05-01T12:05:25;100361.44;;;25.02;47.72
50430;BME280;36359;41.556;-8.418;2023-05-01T12:08:17;100358.28;;;25.10;47.53
50430;BME280;36359;41.556;-8.418;2023-05-01T12:10:45;100368.06;;;25.01;46.89
50430;BME280;36359;41.556;-8.418;2023-05-01T12:13:12;100355.88;;;25.13;47.58
50430;BME280;36359;41.556;-8.418;2023-05-01T12:15:44;100352.59;;;25.05;47.91
50430;BME280;36359;41.556;-8.418;2023-05-01T12:18:11;100348.88;;;24.99;47.85
50430;BME280;36359;41.556;-8.418;2023-05-01T12:23:06;100340.84;;;24.86;47.88
50430;BME280;36359;41.556;-8.418;2023-05-01T12:25:33;100337.13;;;24.68;47.92
50430;BME280;36359;41.556;-8.418;2023-05-01T12:28:01;100332.25;;;24.76;47.07
50430;BME280;36359;41.556;-8.418;2023-05-01T12:30:27;100331.81;;;24.55;47.98
50430;BME280;36359;41.556;-8.418;2023-05-01T12:32:55;100324.06;;;24.69;50.39
50430;BME280;36359;41.556;-8.418;2023-05-01T12:35:22;100321.13;;;24.99;48.93
50430;BME280;36359;41.556;-8.418;2023-05-01T12:37:53;100322.59;;;24.90;48.14
50430;BME280;36359;41.556;-8.418;2023-05-01T12:40:19;100307.56;;;24.62;49.65
50430;BME280;36359;41.556;-8.418;2023-05-01T12:42:54;100310.53;;;24.84;48.11
50430;BME280;36359;41.556;-8.418;2023-05-01T12:45:22;100315.63;;;24.76;47.83
50430;BME280;36359;41.556;-8.418;2023-05-01T12:47:47;100304.97;;;24.96;48.91
50430;BME280;36359;41.556;-8.418;2023-05-01T12:50:13;100302.00;;;24.74;47.43
50430;BME280;36359;41.556;-8.418;2023-05-01T12:52:39;100306.22;;;24.77;48.39
50430;BME280;36359;41.556;-8.418;2023-05-01T12:55:05;100295.88;;;24.60;49.36
50430;BME280;36359;41.556;-8.418;2023-05-01T12:57:33;100291.19;;;25.01;49.38
50430;BME280;36359;41.556;-8.418;2023-05-01T13:00:02;100294.59;;;25.32;47.35
50430;BME280;36359;41.556;-8.418;2023-05-01T13:02:32;100295.88;;;25.41;49.14
50430;BME280;36359;41.556;-8.418;2023-05-01T13:05:08;100293.50;;;25.61;48.29
50430;BME280;36359;41.556;-8.418;2023-05-01T13:07:35;100304.44;;;25.51;47.25
50430;BME280;36359;41.556;-8.418;2023-05-01T13:10:02;100304.53;;;25.28;47.66
50430;BME280;36359;41.556;-8.418;2023-05-01T13:12:31;100305.88;;;25.54;47.24
50430;BME280;36359;41.556;-8.418;2023-05-01T13:14:58;100300.09;;;25.72;47.41
50430;BME280;36359;41.556;-8.418;2023-05-01T13:17:28;100299.28;;;26.05;44.66
50430;BME280;36359;41.556;-8.418;2023-05-01T13:19:59;100297.38;;;25.89;45.40
50430;BME280;36359;41.556;-8.418;2023-05-01T13:22:42;100299.88;;;26.08;46.21
50430;BME280;36359;41.556;-8.418;2023-05-01T13:25:16;100297.53;;;25.99;46.80
50430;BME280;36359;41.556;-8.418;2023-05-01T13:27:48;100303.00;;;26.11;46.56
50430;BME280;36359;41.556;-8.418;2023-05-01T13:30:15;100288.06;;;26.17;48.29
50430;BME280;36359;41.556;-8.418;2023-05-01T13:32:42;100292.56;;;26.18;46.73
50430;BME280;36359;41.556;-8.418;2023-05-01T13:35:09;100293.16;;;26.03;47.38
50430;BME280;36359;41.556;-8.418;2023-05-01T13:37:34;100290.41;;;26.42;47.34
50430;BME280;36359;41.556;-8.418;2023-05-01T13:40:00;100299.34;;;26.44;47.29
50430;BME280;36359;41.556;-8.418;2023-05-01T13:42:27;100288.94;;;26.18;47.65
50430;BME280;36359;41.556;-8.418;2023-05-01T13:44:54;100292.53;;;26.35;46.09
50430;BME280;36359;41.556;-8.418;2023-05-01T13:47:22;100298.13;;;26.01;46.35